sensor_id;sensor_type;location;lat;lon;timestamp;pressure;altitude;pressure_sealevel;temperature;humidity
9091;BME280;4581;42.416;25.598;2023-05-09T00:01:26;66945.34;;;0.00;nan
9091;BME280;4581;42.416;25.598;2023-05-09T00:03:56;66942.28;;;0.00;nan
9091;BME280;4581;42.416;25.598;2023-05-09T00:06:24;66945.34;;;0.00;nan
9091;BME280;4581;42.416;25.598;2023-05-09T00:08:54;66934.66;;;0.00;nan
9091;BME280;4581;42.416;25.598;2023-05-09T00:11:21;66931.59;;;0.00;nan
9091;BME280;4581;42.416;25.598;2023-05-09T00:13:48;66925.50;;;0.00;nan
9091;BME280;4581;42.416;25.598;2023-05-09T00:16:16;66928.56;;;0.00;nan
9091;BME280;4581;42.416;25.598;2023-05-09T00:18:44;66922.44;;;0.00;nan
9091;BME280;4581;42.416;25.598;2023-05-09T00:21:10;66922.44;;;0.00;nan
9091;BME280;4581;42.416;25.598;2023-05-09T00:23:37;66931.59;;;0.00;nan
9091;BME280;4581;42.416;25.598;2023-05-09T00:26:05;66928.56;;;0.00;nan
9091;BME280;4581;42.416;25.598;2023-05-09T00:28:31;66937.72;;;0.00;nan
9091;BME280;4581;42.416;25.598;2023-05-09T00:30:58;66934.66;;;0.00;nan
9091;BME280;4581;42.416;25.598;2023-05-09T00:33:25;66939.22;;;0.00;nan
9091;BME280;4581;42.416;25.598;2023-05-09T00:35:53;66939.22;;;0.00;nan
9091;BME280;4581;42.416;25.598;2023-05-09T00:38:22;66946.88;;;0.00;nan
9091;BME280;4581;42.416;25.598;2023-05-09T00:40:49;66937.72;;;0.00;nan
9091;BME280;4581;42.416;25.598;2023-05-09T00:43:16;66937.72;;;0.00;nan
9091;BME280;4581;42.416;25.598;2023-05-09T00:45:43;66937.72;;;0.00;nan
9091;BME280;4581;42.416;25.598;2023-05-09T00:48:10;66939.22;;;0.00;nan
9091;BME280;4581;42.416;25.598;2023-05-09T00:50:37;66936.19;;;0.00;nan
9091;BME280;4581;42.416;25.598;2023-05-09T00:53:04;66936.19;;;0.00;nan
9091;BME280;4581;42.416;25.598;2023-05-09T00:55:32;66943.81;;;0.00;nan
9091;BME280;4581;42.416;25.598;2023-05-09T00:57:58;66940.75;;;0.00;nan
9091;BME280;4581;42.416;25.598;2023-05-09T01:00:25;66946.88;;;0.00;nan
9091;BME280;4581;42.416;25.598;2023-05-09T01:02:53;66943.81;;;0.00;nan
9091;BME280;4581;42.416;25.598;2023-05-09T01:05:23;66946.88;;;0.00;nan
9091;BME280;4581;42.416;25.598;2023-05-09T01:08:09;66940.75;;;0.00;nan
9091;BME280;4581;42.416;25.598;2023-05-09T01:10:47;66952.97;;;0.00;nan
9091;BME280;4581;42.416;25.598;2023-05-09T01:16:13;66957.53;;;0.00;nan
9091;BME280;4581;42.416;25.598;2023-05-09T01:18:49;66960.59;;;0.00;nan
9091;BME280;4581;42.416;25.598;2023-05-09T01:21:25;66948.38;;;0.00;nan
9091;BME280;4581;42.416;25.598;2023-05-09T01:27:20;66960.59;;;0.00;nan
9091;BME280;4581;42.416;25.598;2023-05-09T01:29:54;66966.69;;;0.00;nan
9091;BME280;4581;42.416;25.598;2023-05-09T01:32:24;66965.16;;;0.00;nan
9091;BME280;4581;42.416;25.598;2023-05-09T01:34:54;66962.13;;;0.00;nan
9091;BME280;4581;42.416;25.598;2023-05-09T01:37:28;66966.69;;;0.00;nan
9091;BME280;4581;42.416;25.598;2023-05-09T01:39:59;66968.22;;;0.00;nan
9091;BME280;4581;42.416;25.598;2023-05-09T01:42:36;66975.84;;;0.00;nan
9091;BME280;4581;42.416;25.598;2023-05-09T01:45:04;66963.66;;;0.00;nan
9091;BME280;4581;42.416;25.598;2023-05-09T01:47:32;66963.66;;;0.00;nan
9091;BME280;4581;42.416;25.598;2023-05-09T01:50:00;66968.22;;;0.00;nan
9091;BME280;4581;42.416;25.598;2023-05-09T01:52:29;66971.28;;;0.00;nan
9091;BME280;4581;42.416;25.598;2023-05-09T01:54:58;66969.75;;;0.00;nan
9091;BME280;4581;42.416;25.598;2023-05-09T01:57:28;66974.31;;;0.00;nan
9091;BME280;4581;42.416;25.598;2023-05-09T01:59:56;66988.06;;;0.00;nan
9091;BME280;4581;42.416;25.598;2023-05-09T02:02:27;66986.53;;;0.00;nan
9091;BME280;4581;42.416;25.598;2023-05-09T02:04:55;66980.44;;;0.00;nan
9091;BME280;4581;42.416;25.598;2023-05-09T02:07:23;66977.38;;;0.00;nan
9091;BME280;4581;42.416;25.598;2023-05-09T02:09:50;66989.59;;;0.00;nan
9091;BME280;4581;42.416;25.598;2023-05-09T02:12:20;66983.47;;;0.00;nan
9091;BME280;4581;42.416;25.598;2023-05-09T02:14:47;66971.28;;;0.00;nan
9091;BME280;4581;42.416;25.598;2023-05-09T02:17:13;66983.47;;;0.00;nan
9091;BME280;4581;42.416;25.598;2023-05-09T02:19:43;66983.47;;;0.00;nan
9091;BME280;4581;42.416;25.598;2023-05-09T02:22:11;66978.91;;;0.00;nan
9091;BME280;4581;42.416;25.598;2023-05-09T02:24:38;66974.31;;;0.00;nan
9091;BME280;4581;42.416;25.598;2023-05-09T02:27:06;66989.59;;;0.00;nan
9091;BME280;4581;42.416;25.598;2023-05-09T02:29:37;66986.53;;;0.00;nan
9091;BME280;4581;42.416;25.598;2023-05-09T02:32:12;66991.13;;;0.00;nan
9091;BME280;4581;42.416;25.598;2023-05-09T02:34:41;66995.69;;;0.00;nan
9091;BME280;4581;42.416;25.598;2023-05-09T02:37:09;66995.69;;;0.00;nan
9091;BME280;4581;42.416;25.598;2023-05-09T02:39:36;67001.78;;;0.00;nan
9091;BME280;4581;42.416;25.598;2023-05-09T02:42:08;67004.84;;;0.00;nan
9091;BME280;4581;42.416;25.598;2023-05-09T02:44:36;67009.41;;;0.00;nan
9091;BME280;4581;42.416;25.598;2023-05-09T02:47:05;67001.78;;;0.00;nan
9091;BME280;4581;42.416;25.598;2023-05-09T02:49:33;67007.91;;;0.00;nan
9091;BME280;4581;42.416;25.598;2023-05-09T02:52:00;67014.00;;;0.00;nan
9091;BME280;4581;42.416;25.598;2023-05-09T02:54:27;67010.94;;;0.00;nan
9091;BME280;4581;42.416;25.598;2023-05-09T02:56:53;67020.09;;;0.00;nan
9091;BME280;4581;42.416;25.598;2023-05-09T02:59:20;67017.06;;;0.00;nan
9091;BME280;4581;42.416;25.598;2023-05-09T03:01:47;67017.06;;;0.00;nan
9091;BME280;4581;42.416;25.598;2023-05-09T03:04:14;67018.56;;;0.00;nan
9091;BME280;4581;42.416;25.598;2023-05-09T03:06:41;67020.09;;;0.00;nan
9091;BME280;4581;42.416;25.598;2023-05-09T03:09:08;67015.53;;;0.00;nan
9091;BME280;4581;42.416;25.598;2023-05-09T03:11:35;67017.06;;;0.00;nan
9091;BME280;4581;42.416;25.598;2023-05-09T03:14:03;67020.09;;;0.00;nan
9091;BME280;4581;42.416;25.598;2023-05-09T03:16:30;67020.09;;;0.00;nan
9091;BME280;4581;42.416;25.598;2023-05-09T03:18:57;67010.94;;;0.00;nan
9091;BME280;4581;42.416;25.598;2023-05-09T03:21:23;67017.06;;;0.00;nan
9091;BME280;4581;42.416;25.598;2023-05-09T03:23:50;67026.22;;;0.00;nan
9091;BME280;4581;42.416;25.598;2023-05-09T03:26:17;67038.41;;;0.00;nan
9091;BME280;4581;42.416;25.598;2023-05-09T03:28:45;67036.88;;;0.00;nan
9091;BME280;4581;42.416;25.598;2023-05-09T03:31:11;67033.84;;;0.00;nan
9091;BME280;4581;42.416;25.598;2023-05-09T03:33:38;67043.00;;;0.00;nan
9091;BME280;4581;42.416;25.598;2023-05-09T03:36:05;67036.88;;;0.00;nan
9091;BME280;4581;42.416;25.598;2023-05-09T03:38:32;67039.94;;;0.00;nan
9091;BME280;4581;42.416;25.598;2023-05-09T03:40:58;67033.84;;;0.00;nan
9091;BME280;4581;42.416;25.598;2023-05-09T03:43:25;67023.16;;;0.00;nan
9091;BME280;4581;42.416;25.598;2023-05-09T03:45:52;67033.84;;;0.00;nan
9091;BME280;4581;42.416;25.598;2023-05-09T03:48:19;67029.25;;;0.00;nan
9091;BME280;4581;42.416;25.598;2023-05-09T03:50:45;67027.72;;;0.00;nan
9091;BME280;4581;42.416;25.598;2023-05-09T03:53:12;67027.72;;;0.00;nan
9091;BME280;4581;42.416;25.598;2023-05-09T03:55:39;67029.25;;;0.00;nan
9091;BME280;4581;42.416;25.598;2023-05-09T03:58:06;67030.78;;;0.00;nan
9091;BME280;4581;42.416;25.598;2023-05-09T04:00:33;67030.78;;;0.00;nan
9091;BME280;4581;42.416;25.598;2023-05-09T04:03:00;67033.84;;;0.00;nan
9091;BME280;4581;42.416;25.598;2023-05-09T04:05:26;67032.31;;;0.00;nan
9091;BME280;4581;42.416;25.598;2023-05-09T04:07:53;67029.25;;;0.00;nan
9091;BME280;4581;42.416;25.598;2023-05-09T04:10:20;67036.88;;;0.00;nan
9091;BME280;4581;42.416;25.598;2023-05-09T04:12:47;67038.41;;;0.00;nan
9091;BME280;4581;42.416;25.598;2023-05-09T04:15:13;67041.47;;;0.00;nan
9091;BME280;4581;42.416;25.598;2023-05-09T04:17:41;67041.47;;;0.00;nan
9091;BME280;4581;42.416;25.598;2023-05-09T04:20:08;67041.47;;;0.00;nan
9091;BME280;4581;42.416;25.598;2023-05-09T04:22:36;67047.56;;;0.00;nan
9091;BME280;4581;42.416;25.598;2023-05-09T04:25:03;67053.69;;;0.00;nan
9091;BME280;4581;42.416;25.598;2023-05-09T04:27:30;67056.72;;;0.00;nan
9091;BME280;4581;42.416;25.598;2023-05-09T04:29:57;67053.69;;;0.00;nan
9091;BME280;4581;42.416;25.598;2023-05-09T04:32:23;67050.63;;;0.00;nan
9091;BME280;4581;42.416;25.598;2023-05-09T04:34:51;67041.47;;;0.00;nan
9091;BME280;4581;42.416;25.598;2023-05-09T04:37:17;67047.56;;;0.00;nan
9091;BME280;4581;42.416;25.598;2023-05-09T04:39:44;67056.72;;;0.00;nan
9091;BME280;4581;42.416;25.598;2023-05-09T04:42:11;67052.16;;;0.00;nan
9091;BME280;4581;42.416;25.598;2023-05-09T04:44:37;67061.31;;;0.00;nan
9091;BME280;4581;42.416;25.598;2023-05-09T04:47:04;67064.34;;;0.00;nan
9091;BME280;4581;42.416;25.598;2023-05-09T04:49:31;67065.88;;;0.00;nan
9091;BME280;4581;42.416;25.598;2023-05-09T04:51:57;67075.03;;;0.00;nan
9091;BME280;4581;42.416;25.598;2023-05-09T04:54:24;67079.63;;;0.00;nan
9091;BME280;4581;42.416;25.598;2023-05-09T04:56:51;67087.25;;;0.00;nan
9091;BME280;4581;42.416;25.598;2023-05-09T04:59:18;67079.63;;;0.00;nan
9091;BME280;4581;42.416;25.598;2023-05-09T05:01:45;67078.09;;;0.00;nan
9091;BME280;4581;42.416;25.598;2023-05-09T05:04:11;67067.41;;;0.00;nan
9091;BME280;4581;42.416;25.598;2023-05-09T05:06:38;67068.94;;;0.00;nan
9091;BME280;4581;42.416;25.598;2023-05-09T05:09:05;67073.50;;;0.00;nan
9091;BME280;4581;42.416;25.598;2023-05-09T05:11:31;67073.50;;;0.00;nan
9091;BME280;4581;42.416;25.598;2023-05-09T05:13:58;67079.63;;;0.00;nan
9091;BME280;4581;42.416;25.598;2023-05-09T05:16:25;67090.28;;;0.00;nan
9091;BME280;4581;42.416;25.598;2023-05-09T05:18:52;67087.25;;;0.00;nan
9091;BME280;4581;42.416;25.598;2023-05-09T05:21:18;67096.41;;;0.00;nan
9091;BME280;4581;42.416;25.598;2023-05-09T05:23:45;67096.41;;;0.00;nan
9091;BME280;4581;42.416;25.598;2023-05-09T05:26:12;67102.50;;;0.00;nan
9091;BME280;4581;42.416;25.598;2023-05-09T05:28:38;67093.34;;;0.00;nan
9091;BME280;4581;42.416;25.598;2023-05-09T05:31:05;67091.81;;;0.00;nan
9091;BME280;4581;42.416;25.598;2023-05-09T05:33:32;67097.94;;;0.00;nan
9091;BME280;4581;42.416;25.598;2023-05-09T05:35:58;67096.41;;;0.00;nan
9091;BME280;4581;42.416;25.598;2023-05-09T05:38:25;67096.41;;;0.00;nan
9091;BME280;4581;42.416;25.598;2023-05-09T05:40:52;67099.44;;;0.00;nan
9091;BME280;4581;42.416;25.598;2023-05-09T05:43:18;67087.25;;;0.00;nan
9091;BME280;4581;42.416;25.598;2023-05-09T05:45:45;67081.13;;;0.00;nan
9091;BME280;4581;42.416;25.598;2023-05-09T05:48:12;67078.09;;;0.00;nan
9091;BME280;4581;42.416;25.598;2023-05-09T05:50:38;67081.13;;;0.00;nan
9091;BME280;4581;42.416;25.598;2023-05-09T05:53:05;67078.09;;;0.00;nan
9091;BME280;4581;42.416;25.598;2023-05-09T05:55:32;67076.56;;;0.00;nan
9091;BME280;4581;42.416;25.598;2023-05-09T05:57:58;67071.97;;;0.00;nan
9091;BME280;4581;42.416;25.598;2023-05-09T06:00:25;67065.88;;;0.00;nan
9091;BME280;4581;42.416;25.598;2023-05-09T06:02:51;67056.72;;;0.00;nan
9091;BME280;4581;42.416;25.598;2023-05-09T06:05:18;67050.63;;;0.00;nan
9091;BME280;4581;42.416;25.598;2023-05-09T06:07:45;67046.03;;;0.00;nan
9091;BME280;4581;42.416;25.598;2023-05-09T06:10:12;67041.47;;;0.00;nan
9091;BME280;4581;42.416;25.598;2023-05-09T06:12:39;67059.78;;;0.00;nan
9091;BME280;4581;42.416;25.598;2023-05-09T06:15:06;67058.25;;;0.00;nan
9091;BME280;4581;42.416;25.598;2023-05-09T06:17:33;67055.19;;;0.00;nan
9091;BME280;4581;42.416;25.598;2023-05-09T06:19:59;67052.16;;;0.00;nan
9091;BME280;4581;42.416;25.598;2023-05-09T06:22:26;67058.25;;;0.00;nan
9091;BME280;4581;42.416;25.598;2023-05-09T06:24:53;67053.69;;;0.00;nan
9091;BME280;4581;42.416;25.598;2023-05-09T06:27:20;67056.72;;;0.00;nan
9091;BME280;4581;42.416;25.598;2023-05-09T06:29:46;67056.72;;;0.00;nan
9091;BME280;4581;42.416;25.598;2023-05-09T06:32:13;67050.63;;;0.00;nan
9091;BME280;4581;42.416;25.598;2023-05-09T06:34:40;67043.00;;;0.00;nan
9091;BME280;4581;42.416;25.598;2023-05-09T06:37:07;67044.53;;;0.00;nan
9091;BME280;4581;42.416;25.598;2023-05-09T06:39:34;67053.69;;;0.00;nan
9091;BME280;4581;42.416;25.598;2023-05-09T06:42:00;67050.63;;;0.00;nan
9091;BME280;4581;42.416;25.598;2023-05-09T06:44:27;67050.63;;;0.00;nan
9091;BME280;4581;42.416;25.598;2023-05-09T06:46:54;67050.63;;;0.00;nan
9091;BME280;4581;42.416;25.598;2023-05-09T06:49:20;67067.41;;;0.00;nan
9091;BME280;4581;42.416;25.598;2023-05-09T06:51:47;67058.25;;;0.00;nan
9091;BME280;4581;42.416;25.598;2023-05-09T06:54:14;67059.78;;;0.00;nan
9091;BME280;4581;42.416;25.598;2023-05-09T06:56:42;67064.34;;;0.00;nan
9091;BME280;4581;42.416;25.598;2023-05-09T06:59:09;67059.78;;;0.00;nan
9091;BME280;4581;42.416;25.598;2023-05-09T07:01:39;67062.81;;;0.00;nan
9091;BME280;4581;42.416;25.598;2023-05-09T07:04:06;67078.09;;;0.00;nan
9091;BME280;4581;42.416;25.598;2023-05-09T07:06:33;67093.34;;;0.00;nan
9091;BME280;4581;42.416;25.598;2023-05-09T07:09:00;67102.50;;;0.00;nan
9091;BME280;4581;42.416;25.598;2023-05-09T07:11:26;67100.97;;;0.00;nan
9091;BME280;4581;42.416;25.598;2023-05-09T07:13:53;67096.41;;;0.00;nan
9091;BME280;4581;42.416;25.598;2023-05-09T07:16:20;67087.25;;;0.00;nan
9091;BME280;4581;42.416;25.598;2023-05-09T07:18:48;67090.28;;;0.00;nan
9091;BME280;4581;42.416;25.598;2023-05-09T07:21:15;67085.72;;;0.00;nan
9091;BME280;4581;42.416;25.598;2023-05-09T07:23:41;67078.09;;;0.00;nan
9091;BME280;4581;42.416;25.598;2023-05-09T07:26:08;67078.09;;;0.00;nan
9091;BME280;4581;42.416;25.598;2023-05-09T07:28:35;67068.94;;;0.00;nan
9091;BME280;4581;42.416;25.598;2023-05-09T07:31:01;67068.94;;;0.00;nan
9091;BME280;4581;42.416;25.598;2023-05-09T07:33:28;67068.94;;;0.00;nan
9091;BME280;4581;42.416;25.598;2023-05-09T07:35:57;67067.41;;;0.00;nan
9091;BME280;4581;42.416;25.598;2023-05-09T07:38:24;67067.41;;;0.00;nan
9091;BME280;4581;42.416;25.598;2023-05-09T07:40:50;67055.19;;;0.00;nan
9091;BME280;4581;42.416;25.598;2023-05-09T07:43:18;67062.81;;;0.00;nan
9091;BME280;4581;42.416;25.598;2023-05-09T07:45:45;67047.56;;;0.00;nan
9091;BME280;4581;42.416;25.598;2023-05-09T07:48:12;67053.69;;;0.00;nan
9091;BME280;4581;42.416;25.598;2023-05-09T07:50:39;67041.47;;;0.00;nan
9091;BME280;4581;42.416;25.598;2023-05-09T07:53:05;67029.25;;;0.00;nan
9091;BME280;4581;42.416;25.598;2023-05-09T07:55:32;67029.25;;;0.00;nan
9091;BME280;4581;42.416;25.598;2023-05-09T07:57:59;67029.25;;;0.00;nan
9091;BME280;4581;42.416;25.598;2023-05-09T08:00:25;67018.56;;;0.00;nan
9091;BME280;4581;42.416;25.598;2023-05-09T08:02:52;67017.06;;;0.00;nan
9091;BME280;4581;42.416;25.598;2023-05-09T08:05:19;67032.31;;;0.00;nan
9091;BME280;4581;42.416;25.598;2023-05-09T08:07:46;67041.47;;;0.00;nan
9091;BME280;4581;42.416;25.598;2023-05-09T08:10:13;67043.00;;;0.00;nan
9091;BME280;4581;42.416;25.598;2023-05-09T08:12:39;67047.56;;;0.00;nan
9091;BME280;4581;42.416;25.598;2023-05-09T08:15:06;67056.72;;;0.00;nan
9091;BME280;4581;42.416;25.598;2023-05-09T08:17:33;67062.81;;;0.00;nan
9091;BME280;4581;42.416;25.598;2023-05-09T08:20:00;67059.78;;;0.00;nan
9091;BME280;4581;42.416;25.598;2023-05-09T08:22:27;67068.94;;;0.00;nan
9091;BME280;4581;42.416;25.598;2023-05-09T08:24:54;67064.34;;;0.00;nan
9091;BME280;4581;42.416;25.598;2023-05-09T08:27:21;67062.81;;;0.00;nan
9091;BME280;4581;42.416;25.598;2023-05-09T08:29:47;67073.50;;;0.00;nan
9091;BME280;4581;42.416;25.598;2023-05-09T08:32:14;67075.03;;;0.00;nan
9091;BME280;4581;42.416;25.598;2023-05-09T08:34:41;67081.13;;;0.00;nan
9091;BME280;4581;42.416;25.598;2023-05-09T08:37:07;67075.03;;;0.00;nan
9091;BME280;4581;42.416;25.598;2023-05-09T08:39:34;67067.41;;;0.00;nan
9091;BME280;4581;42.416;25.598;2023-05-09T08:42:01;67073.50;;;0.00;nan
9091;BME280;4581;42.416;25.598;2023-05-09T08:44:29;67075.03;;;0.00;nan
9091;BME280;4581;42.416;25.598;2023-05-09T08:47:01;67082.66;;;0.00;nan
9091;BME280;4581;42.416;25.598;2023-05-09T08:49:29;67087.25;;;0.00;nan
9091;BME280;4581;42.416;25.598;2023-05-09T08:51:56;67087.25;;;0.00;nan
9091;BME280;4581;42.416;25.598;2023-05-09T08:54:24;67084.19;;;0.00;nan
9091;BME280;4581;42.416;25.598;2023-05-09T08:56:50;67096.41;;;0.00;nan
9091;BME280;4581;42.416;25.598;2023-05-09T08:59:17;67110.13;;;0.00;nan
9091;BME280;4581;42.416;25.598;2023-05-09T09:01:45;67120.81;;;0.00;nan
9091;BME280;4581;42.416;25.598;2023-05-09T09:04:12;67110.13;;;0.00;nan
9091;BME280;4581;42.416;25.598;2023-05-09T09:06:39;67100.97;;;0.00;nan
9091;BME280;4581;42.416;25.598;2023-05-09T09:09:07;67105.56;;;0.00;nan
9091;BME280;4581;42.416;25.598;2023-05-09T09:11:35;67107.09;;;0.00;nan
9091;BME280;4581;42.416;25.598;2023-05-09T09:14:11;67102.50;;;0.00;nan
9091;BME280;4581;42.416;25.598;2023-05-09T09:16:40;67094.88;;;0.00;nan
9091;BME280;4581;42.416;25.598;2023-05-09T09:19:12;67093.34;;;0.00;nan
9091;BME280;4581;42.416;25.598;2023-05-09T09:21:44;67090.28;;;0.00;nan
9091;BME280;4581;42.416;25.598;2023-05-09T09:24:12;67091.81;;;0.00;nan
9091;BME280;4581;42.416;25.598;2023-05-09T09:26:47;67105.56;;;0.00;nan
9091;BME280;4581;42.416;25.598;2023-05-09T09:29:16;67102.50;;;0.00;nan
9091;BME280;4581;42.416;25.598;2023-05-09T09:31:46;67105.56;;;0.00;nan
9091;BME280;4581;42.416;25.598;2023-05-09T09:34:20;67094.88;;;0.00;nan
9091;BME280;4581;42.416;25.598;2023-05-09T09:36:48;67090.28;;;0.00;nan
9091;BME280;4581;42.416;25.598;2023-05-09T09:39:14;67081.13;;;0.00;nan
9091;BME280;4581;42.416;25.598;2023-05-09T09:41:41;67081.13;;;0.00;nan
9091;BME280;4581;42.416;25.598;2023-05-09T09:44:18;67087.25;;;0.00;nan
9091;BME280;4581;42.416;25.598;2023-05-09T09:46:52;67070.47;;;0.00;nan
9091;BME280;4581;42.416;25.598;2023-05-09T09:49:24;67064.34;;;0.00;nan
9091;BME280;4581;42.416;25.598;2023-05-09T09:51:53;67065.88;;;0.00;nan
9091;BME280;4581;42.416;25.598;2023-05-09T09:54:21;67064.34;;;0.00;nan
9091;BME280;4581;42.416;25.598;2023-05-09T09:56:49;67068.94;;;0.00;nan
9091;BME280;4581;42.416;25.598;2023-05-09T09:59:19;67058.25;;;0.00;nan
9091;BME280;4581;42.416;25.598;2023-05-09T10:02:03;67061.31;;;0.00;nan
9091;BME280;4581;42.416;25.598;2023-05-09T10:04:35;67065.88;;;0.00;nan
9091;BME280;4581;42.416;25.598;2023-05-09T10:07:07;67049.09;;;0.00;nan
9091;BME280;4581;42.416;25.598;2023-05-09T10:09:38;67049.09;;;0.00;nan
9091;BME280;4581;42.416;25.598;2023-05-09T10:12:07;67017.06;;;0.00;nan
9091;BME280;4581;42.416;25.598;2023-05-09T10:14:35;66998.75;;;0.00;nan
9091;BME280;4581;42.416;25.598;2023-05-09T10:17:04;66978.91;;;0.00;nan
9091;BME280;4581;42.416;25.598;2023-05-09T10:19:31;66954.50;;;0.00;nan
9091;BME280;4581;42.416;25.598;2023-05-09T10:22:03;66936.19;;;0.00;nan
9091;BME280;4581;42.416;25.598;2023-05-09T10:25:00;66919.41;;;0.00;nan
9091;BME280;4581;42.416;25.598;2023-05-09T10:27:26;66914.81;;;0.00;nan
9091;BME280;4581;42.416;25.598;2023-05-09T10:30:08;66902.59;;;0.00;nan
9091;BME280;4581;42.416;25.598;2023-05-09T10:33:04;66891.94;;;0.00;nan
9091;BME280;4581;42.416;25.598;2023-05-09T10:35:41;66882.78;;;0.00;nan
9091;BME280;4581;42.416;25.598;2023-05-09T10:38:09;66876.66;;;0.00;nan
9091;BME280;4581;42.416;25.598;2023-05-09T10:40:39;66884.31;;;0.00;nan
9091;BME280;4581;42.416;25.598;2023-05-09T10:43:06;66858.34;;;0.00;nan
9091;BME280;4581;42.416;25.598;2023-05-09T10:45:33;66844.63;;;0.00;nan
9091;BME280;4581;42.416;25.598;2023-05-09T10:48:00;66853.78;;;0.00;nan
9091;BME280;4581;42.416;25.598;2023-05-09T10:50:29;66833.94;;;0.00;nan
9091;BME280;4581;42.416;25.598;2023-05-09T10:58:21;66809.53;;;0.00;nan
9091;BME280;4581;42.416;25.598;2023-05-09T11:00:50;66815.63;;;0.00;nan
9091;BME280;4581;42.416;25.598;2023-05-09T11:03:17;66809.53;;;0.00;nan
9091;BME280;4581;42.416;25.598;2023-05-09T11:05:54;66812.59;;;0.00;nan
9091;BME280;4581;42.416;25.598;2023-05-09T11:11:04;66789.69;;;0.00;nan
9091;BME280;4581;42.416;25.598;2023-05-09T11:13:36;66797.31;;;0.00;nan
9091;BME280;4581;42.416;25.598;2023-05-09T11:16:09;66789.69;;;0.00;nan
9091;BME280;4581;42.416;25.598;2023-05-09T11:18:49;66785.13;;;0.00;nan
9091;BME280;4581;42.416;25.598;2023-05-09T11:21:17;66801.91;;;0.00;nan
9091;BME280;4581;42.416;25.598;2023-05-09T11:23:46;66800.38;;;0.00;nan
9091;BME280;4581;42.416;25.598;2023-05-09T11:26:13;66818.69;;;0.00;nan
9091;BME280;4581;42.416;25.598;2023-05-09T11:28:40;66818.69;;;0.00;nan
9091;BME280;4581;42.416;25.598;2023-05-09T11:33:35;66815.63;;;0.00;nan
9091;BME280;4581;42.416;25.598;2023-05-09T11:36:41;66798.84;;;0.00;nan
9091;BME280;4581;42.416;25.598;2023-05-09T11:39:09;66785.13;;;0.00;nan
9091;BME280;4581;42.416;25.598;2023-05-09T11:41:45;66782.06;;;0.00;nan
9091;BME280;4581;42.416;25.598;2023-05-09T11:44:19;66775.97;;;0.00;nan
9091;BME280;4581;42.416;25.598;2023-05-09T11:46:47;66765.28;;;0.00;nan
9091;BME280;4581;42.416;25.598;2023-05-09T11:49:14;66751.53;;;0.00;nan
9091;BME280;4581;42.416;25.598;2023-05-09T11:51:42;66745.44;;;0.00;nan
9091;BME280;4581;42.416;25.598;2023-05-09T11:54:09;66742.41;;;0.00;nan
9091;BME280;4581;42.416;25.598;2023-05-09T11:56:39;66748.50;;;0.00;nan
9091;BME280;4581;42.416;25.598;2023-05-09T11:59:06;66759.19;;;0.00;nan
9091;BME280;4581;42.416;25.598;2023-05-09T12:01:34;66772.91;;;0.00;nan
9091;BME280;4581;42.416;25.598;2023-05-09T12:04:01;66782.06;;;0.00;nan
9091;BME280;4581;42.416;25.598;2023-05-09T12:06:28;66779.00;;;0.00;nan
9091;BME280;4581;42.416;25.598;2023-05-09T12:08:55;66785.13;;;0.00;nan
9091;BME280;4581;42.416;25.598;2023-05-09T12:11:25;66760.69;;;0.00;nan
9091;BME280;4581;42.416;25.598;2023-05-09T12:13:55;66765.28;;;0.00;nan
9091;BME280;4581;42.416;25.598;2023-05-09T12:16:21;66765.28;;;0.00;nan
9091;BME280;4581;42.416;25.598;2023-05-09T12:18:49;66772.91;;;0.00;nan
9091;BME280;4581;42.416;25.598;2023-05-09T12:21:18;66769.84;;;0.00;nan
9091;BME280;4581;42.416;25.598;2023-05-09T12:23:45;66751.53;;;0.00;nan
9091;BME280;4581;42.416;25.598;2023-05-09T12:26:15;66751.53;;;0.00;nan
9091;BME280;4581;42.416;25.598;2023-05-09T12:28:42;66730.19;;;0.00;nan
9091;BME280;4581;42.416;25.598;2023-05-09T12:31:09;66731.72;;;0.00;nan
9091;BME280;4581;42.416;25.598;2023-05-09T12:33:37;66721.03;;;0.00;nan
9091;BME280;4581;42.416;25.598;2023-05-09T12:36:09;66711.88;;;0.00;nan
9091;BME280;4581;42.416;25.598;2023-05-09T12:38:37;66704.25;;;0.00;nan
9091;BME280;4581;42.416;25.598;2023-05-09T12:41:08;66727.13;;;0.00;nan
9091;BME280;4581;42.416;25.598;2023-05-09T12:43:48;66746.97;;;0.00;nan
9091;BME280;4581;42.416;25.598;2023-05-09T12:46:18;66740.88;;;0.00;nan
9091;BME280;4581;42.416;25.598;2023-05-09T12:48:46;66722.56;;;0.00;nan
9091;BME280;4581;42.416;25.598;2023-05-09T12:51:18;66722.56;;;0.00;nan
9091;BME280;4581;42.416;25.598;2023-05-09T12:53:48;66717.97;;;0.00;nan
9091;BME280;4581;42.416;25.598;2023-05-09T12:56:19;66714.94;;;0.00;nan
9091;BME280;4581;42.416;25.598;2023-05-09T12:58:49;66695.09;;;0.00;nan
9091;BME280;4581;42.416;25.598;2023-05-09T13:01:18;66684.41;;;0.00;nan
9091;BME280;4581;42.416;25.598;2023-05-09T13:04:00;66687.47;;;0.00;nan
9091;BME280;4581;42.416;25.598;2023-05-09T13:06:27;66678.31;;;0.00;nan
9091;BME280;4581;42.416;25.598;2023-05-09T13:08:58;66695.09;;;0.00;nan
9091;BME280;4581;42.416;25.598;2023-05-09T13:11:26;66695.09;;;0.00;nan
9091;BME280;4581;42.416;25.598;2023-05-09T13:13:53;66695.09;;;0.00;nan
9091;BME280;4581;42.416;25.598;2023-05-09T13:16:20;66699.66;;;0.00;nan
9091;BME280;4581;42.416;25.598;2023-05-09T13:18:47;66690.50;;;0.00;nan
9091;BME280;4581;42.416;25.598;2023-05-09T13:21:14;66702.72;;;0.00;nan
9091;BME280;4581;42.416;25.598;2023-05-09T13:23:41;66710.34;;;0.00;nan
9091;BME280;4581;42.416;25.598;2023-05-09T13:26:07;66701.19;;;0.00;nan
9091;BME280;4581;42.416;25.598;2023-05-09T13:28:34;66702.72;;;0.00;nan
9091;BME280;4581;42.416;25.598;2023-05-09T13:31:01;66692.03;;;0.00;nan
9091;BME280;4581;42.416;25.598;2023-05-09T13:33:28;66685.94;;;0.00;nan
9091;BME280;4581;42.416;25.598;2023-05-09T13:35:55;66690.50;;;0.00;nan
9091;BME280;4581;42.416;25.598;2023-05-09T13:38:21;66696.63;;;0.00;nan
9091;BME280;4581;42.416;25.598;2023-05-09T13:40:48;66705.78;;;0.00;nan
9091;BME280;4581;42.416;25.598;2023-05-09T13:43:15;66714.94;;;0.00;nan
9091;BME280;4581;42.416;25.598;2023-05-09T13:45:42;66730.19;;;0.00;nan
9091;BME280;4581;42.416;25.598;2023-05-09T13:48:09;66736.28;;;0.00;nan
9091;BME280;4581;42.416;25.598;2023-05-09T13:50:37;66746.97;;;0.00;nan
9091;BME280;4581;42.416;25.598;2023-05-09T13:53:03;66756.13;;;0.00;nan
9091;BME280;4581;42.416;25.598;2023-05-09T13:55:30;66754.59;;;0.00;nan
9091;BME280;4581;42.416;25.598;2023-05-09T13:57:56;66760.69;;;0.00;nan
9091;BME280;4581;42.416;25.598;2023-05-09T14:00:23;66774.44;;;0.00;nan
9091;BME280;4581;42.416;25.598;2023-05-09T14:02:52;66782.06;;;0.00;nan
9091;BME280;4581;42.416;25.598;2023-05-09T14:05:18;66779.00;;;0.00;nan
9091;BME280;4581;42.416;25.598;2023-05-09T14:07:45;66786.66;;;0.00;nan